createdAt,value
2017-10-16T00:02:09.483Z,101345.89
2017-10-16T00:04:47.291Z,101350.16
2017-10-16T00:07:21.893Z,101346.67
2017-10-16T00:09:57.211Z,101355.71
2017-10-16T00:12:31.832Z,101349.20
2017-10-16T00:15:07.029Z,101359.02
2017-10-16T00:17:41.597Z,101355.64
2017-10-16T00:20:17.587Z,101349.39
2017-10-16T00:22:54.951Z,101354.97
2017-10-16T00:25:30.045Z,101352.38
2017-10-16T00:28:04.570Z,101353.36
2017-10-16T00:30:39.765Z,101351.55
2017-10-16T00:33:14.481Z,101356.38
2017-10-16T00:35:49.329Z,101365.39
2017-10-16T00:38:23.953Z,101364.09
2017-10-16T00:40:59.385Z,101374.33
2017-10-16T00:43:34.707Z,101366.20
2017-10-16T00:46:09.309Z,101361.46
2017-10-16T00:48:44.618Z,101364.09
2017-10-16T00:51:22.678Z,101364.48
2017-10-16T00:53:57.503Z,101369.01
2017-10-16T00:56:32.479Z,101370.27
2017-10-16T00:59:07.433Z,101368.87
2017-10-16T01:01:42.293Z,101374.39
2017-10-16T01:04:19.442Z,101375.67
2017-10-16T01:06:56.584Z,101373.96
2017-10-16T01:09:31.407Z,101377.38
2017-10-16T01:12:06.863Z,101373.49
2017-10-16T01:14:42.089Z,101385.55
2017-10-16T01:17:16.707Z,101384.31
2017-10-16T01:19:52.044Z,101385.64
2017-10-16T01:22:27.518Z,101397.17
2017-10-16T01:25:02.361Z,101391.19
2017-10-16T01:27:42.853Z,101405.40
2017-10-16T01:30:19.562Z,101406.61
2017-10-16T01:32:56.260Z,101416.83
2017-10-16T01:35:31.751Z,101415.49
2017-10-16T01:38:09.126Z,101429.64
2017-10-16T01:40:43.984Z,101422.84
2017-10-16T01:43:19.850Z,101425.41
2017-10-16T01:45:54.349Z,101418.09
2017-10-16T01:48:31.526Z,101417.59
2017-10-16T01:51:07.013Z,101420.19
2017-10-16T01:53:41.815Z,101415.48
2017-10-16T01:56:16.538Z,101415.59
2017-10-16T01:58:51.092Z,101420.74
2017-10-16T02:01:31.930Z,101423.70
2017-10-16T02:04:07.063Z,101417.81
2017-10-16T02:06:42.463Z,101419.95
2017-10-16T02:09:17.017Z,101421.70
2017-10-16T02:11:52.438Z,101426.39
2017-10-16T02:14:27.313Z,101424.72
2017-10-16T02:17:01.793Z,101425.78
2017-10-16T02:19:36.473Z,101421.09
2017-10-16T02:22:11.177Z,101423.17
2017-10-16T02:24:45.898Z,101424.75
2017-10-16T02:27:23.427Z,101428.20
2017-10-16T02:29:57.947Z,101428.66
2017-10-16T02:32:32.746Z,101427.92
2017-10-16T02:35:07.410Z,101418.09
2017-10-16T02:37:42.066Z,101424.63
2017-10-16T02:40:21.061Z,101420.75
2017-10-16T02:42:55.615Z,101427.56
2017-10-16T02:45:31.315Z,101428.00
2017-10-16T02:48:08.175Z,101416.03
2017-10-16T02:50:42.705Z,101424.12
2017-10-16T02:53:20.301Z,101424.89
2017-10-16T02:55:55.559Z,101430.45
2017-10-16T02:58:30.280Z,101424.93
2017-10-16T03:01:05.308Z,101429.55
2017-10-16T03:03:39.876Z,101428.19
2017-10-16T03:06:14.364Z,101428.97
2017-10-16T03:08:48.884Z,101432.83
2017-10-16T03:11:23.793Z,101428.95
2017-10-16T03:14:00.229Z,101437.88
2017-10-16T03:16:39.312Z,101437.48
2017-10-16T03:19:14.137Z,101438.75
2017-10-16T03:21:55.303Z,101437.82
2017-10-16T03:24:30.196Z,101442.05
2017-10-16T03:27:07.410Z,101433.97
2017-10-16T03:29:42.276Z,101444.37
2017-10-16T03:32:18.961Z,101438.02
2017-10-16T03:34:53.456Z,101437.16
2017-10-16T03:37:29.506Z,101443.11
2017-10-16T03:40:04.536Z,101441.91
2017-10-16T03:42:41.145Z,101439.79
2017-10-16T03:45:16.440Z,101456.03
2017-10-16T03:47:51.505Z,101456.41
2017-10-16T03:50:26.946Z,101453.81
2017-10-16T03:52:55.030Z,101457.23
2017-10-16T03:55:35.583Z,101443.97
2017-10-16T03:58:21.260Z,101458.92
2017-10-16T04:00:56.704Z,101461.00
2017-10-16T04:03:23.568Z,101459.67
2017-10-16T04:05:58.744Z,101462.95
2017-10-16T04:08:38.057Z,101464.08
2017-10-16T04:11:19.713Z,101472.18
2017-10-16T04:14:00.077Z,101475.23
2017-10-16T04:16:34.851Z,101479.45
2017-10-16T04:19:11.275Z,101473.05
2017-10-16T04:21:46.098Z,101480.84
2017-10-16T04:24:22.272Z,101489.34
2017-10-16T04:27:01.693Z,101485.89
2017-10-16T04:29:36.346Z,101488.38
2017-10-16T04:32:11.962Z,101495.21
2017-10-16T04:34:47.634Z,101485.76
2017-10-16T04:37:22.196Z,101484.80
2017-10-16T04:39:56.835Z,101503.16
2017-10-16T04:42:32.231Z,101493.18
2017-10-16T04:45:07.001Z,101501.33
2017-10-16T04:47:42.406Z,101503.47
2017-10-16T04:50:09.954Z,101504.23
2017-10-16T04:52:44.700Z,101510.59
2017-10-16T04:55:20.939Z,101503.32
2017-10-16T04:57:55.989Z,101513.62
2017-10-16T05:00:32.964Z,101518.86
2017-10-16T05:03:08.414Z,101515.23
2017-10-16T05:05:43.633Z,101525.00
2017-10-16T05:08:18.098Z,101523.14
2017-10-16T05:10:52.858Z,101525.56
2017-10-16T05:13:27.758Z,101528.08
2017-10-16T05:16:03.931Z,101527.95
2017-10-16T05:18:45.363Z,101548.38
2017-10-16T05:21:21.056Z,101547.16
2017-10-16T05:23:57.304Z,101547.59
2017-10-16T05:26:32.796Z,101546.81
2017-10-16T05:29:08.449Z,101551.13
2017-10-16T05:31:46.797Z,101555.91
2017-10-16T05:34:22.239Z,101550.69
2017-10-16T05:37:01.093Z,101563.14
2017-10-16T05:39:36.588Z,101564.76
2017-10-16T05:42:11.277Z,101574.14
2017-10-16T05:44:46.631Z,101571.09
2017-10-16T05:47:23.272Z,101579.61
2017-10-16T05:49:58.031Z,101580.32
2017-10-16T05:52:33.016Z,101584.05
2017-10-16T05:55:08.001Z,101595.70
2017-10-16T05:57:46.060Z,101596.79
2017-10-16T06:00:20.640Z,101592.16
2017-10-16T06:03:07.861Z,101597.05
2017-10-16T06:05:43.304Z,101598.70
2017-10-16T06:08:18.900Z,101596.72
2017-10-16T06:10:54.065Z,101614.00
2017-10-16T06:13:28.754Z,101624.70
2017-10-16T06:16:04.413Z,101628.75
2017-10-16T06:18:41.095Z,101638.24
2017-10-16T06:21:15.703Z,101634.77
2017-10-16T06:23:54.965Z,101637.75
2017-10-16T06:26:30.429Z,101634.20
2017-10-16T06:29:09.203Z,101644.50
2017-10-16T06:31:45.886Z,101643.53
2017-10-16T06:34:20.568Z,101643.58
2017-10-16T06:36:57.233Z,101656.06
2017-10-16T06:39:34.093Z,101649.61
2017-10-16T06:42:09.433Z,101650.70
2017-10-16T06:44:44.901Z,101663.45
2017-10-16T06:47:20.471Z,101650.09
2017-10-16T06:49:55.172Z,101645.20
2017-10-16T06:52:30.278Z,101650.48
2017-10-16T06:55:05.811Z,101651.66
2017-10-16T06:57:40.390Z,101652.19
2017-10-16T07:00:17.937Z,101655.10
2017-10-16T07:02:52.770Z,101658.71
2017-10-16T07:05:28.112Z,101668.30
2017-10-16T07:08:05.005Z,101658.68
2017-10-16T07:10:42.890Z,101658.12
2017-10-16T07:13:17.820Z,101663.20
2017-10-16T07:15:53.238Z,101659.05
2017-10-16T07:18:27.940Z,101665.97
2017-10-16T07:21:03.105Z,101671.25
2017-10-16T07:23:39.837Z,101674.49
2017-10-16T07:26:15.361Z,101675.84
2017-10-16T07:28:57.069Z,101669.89
2017-10-16T07:31:33.095Z,101678.06
2017-10-16T07:34:07.917Z,101681.98
2017-10-16T07:36:44.298Z,101676.63
2017-10-16T07:39:19.534Z,101678.73
2017-10-16T07:41:55.567Z,101681.49
2017-10-16T07:44:30.144Z,101676.06
2017-10-16T07:47:06.735Z,101691.28
2017-10-16T07:49:41.626Z,101689.97
2017-10-16T07:52:16.396Z,101690.94
2017-10-16T07:54:51.117Z,101687.65
2017-10-16T07:57:26.259Z,101702.17
2017-10-16T08:00:00.881Z,101708.19
2017-10-16T08:02:28.705Z,101707.00
2017-10-16T08:05:04.543Z,101706.81
2017-10-16T08:07:39.777Z,101699.78
2017-10-16T08:10:20.293Z,101697.09
2017-10-16T08:13:01.110Z,101716.80
2017-10-16T08:15:35.814Z,101712.47
2017-10-16T08:18:10.664Z,101724.94
2017-10-16T08:20:45.516Z,101725.80
2017-10-16T08:23:20.582Z,101725.80
2017-10-16T08:25:55.469Z,101724.30
2017-10-16T08:28:30.515Z,101723.20
2017-10-16T08:31:05.389Z,101725.37
2017-10-16T08:33:42.254Z,101718.70
2017-10-16T08:36:16.904Z,101720.53
2017-10-16T08:38:54.162Z,101723.44
2017-10-16T08:41:29.282Z,101718.02
2017-10-16T08:44:04.206Z,101717.87
2017-10-16T08:46:39.137Z,101714.16
2017-10-16T08:49:15.026Z,101719.88
2017-10-16T08:51:49.687Z,101722.11
2017-10-16T08:54:26.806Z,101718.80
2017-10-16T08:57:02.537Z,101726.02
2017-10-16T08:59:43.058Z,101727.77
2017-10-16T09:02:18.269Z,101732.89
2017-10-16T09:04:54.714Z,101740.59
2017-10-16T09:07:32.027Z,101736.66
2017-10-16T09:10:12.673Z,101741.00
2017-10-16T09:12:48.017Z,101733.75
2017-10-16T09:15:26.654Z,101738.81
2017-10-16T09:18:03.652Z,101730.21
2017-10-16T09:20:38.281Z,101732.65
2017-10-16T09:23:13.975Z,101739.11
2017-10-16T09:25:50.375Z,101732.25
2017-10-16T09:28:25.000Z,101732.59
2017-10-16T09:31:01.502Z,101731.58
2017-10-16T09:33:37.252Z,101732.00
2017-10-16T09:36:16.137Z,101733.60
2017-10-16T09:38:50.851Z,101725.02
2017-10-16T09:41:25.912Z,101725.44
2017-10-16T09:44:00.844Z,101722.38
2017-10-16T09:46:35.969Z,101720.20
2017-10-16T09:49:11.201Z,101716.39
2017-10-16T09:51:48.411Z,101722.25
2017-10-16T09:54:23.710Z,101713.58
2017-10-16T09:57:01.172Z,101718.26
2017-10-16T09:59:36.070Z,101728.32
2017-10-16T10:02:02.922Z,101725.03
2017-10-16T10:04:38.134Z,101721.13
2017-10-16T10:07:12.765Z,101715.78
2017-10-16T10:09:48.119Z,101721.70
2017-10-16T10:12:24.105Z,101728.78
2017-10-16T10:14:59.294Z,101729.67
2017-10-16T10:17:37.028Z,101726.38
2017-10-16T10:20:11.652Z,101732.78
2017-10-16T10:22:47.298Z,101717.05
2017-10-16T10:25:23.733Z,101725.73
2017-10-16T10:27:59.315Z,101722.42
2017-10-16T10:30:33.957Z,101719.28
2017-10-16T10:33:11.116Z,101720.97
2017-10-16T10:35:45.546Z,101710.19
2017-10-16T10:38:22.894Z,101720.27
2017-10-16T10:40:58.102Z,101723.31
2017-10-16T10:43:32.860Z,101714.44
2017-10-16T10:46:09.679Z,101719.00
2017-10-16T10:48:44.683Z,101716.78
2017-10-16T10:51:19.975Z,101726.16
2017-10-16T10:53:54.660Z,101712.95
2017-10-16T10:56:31.801Z,101710.27
2017-10-16T10:59:10.684Z,101713.64
2017-10-16T11:01:46.023Z,101707.53
2017-10-16T11:04:21.299Z,101698.72
2017-10-16T11:06:56.540Z,101709.45
2017-10-16T11:09:31.219Z,101711.05
2017-10-16T11:12:06.752Z,101702.19
2017-10-16T11:14:42.012Z,101704.59
2017-10-16T11:17:17.467Z,101700.50
2017-10-16T11:19:52.467Z,101698.29
2017-10-16T11:22:27.543Z,101702.60
2017-10-16T11:25:07.096Z,101689.59
2017-10-16T11:27:42.367Z,101683.23
2017-10-16T11:30:16.978Z,101694.71
2017-10-16T11:32:53.972Z,101686.67
2017-10-16T11:35:29.782Z,101685.35
2017-10-16T11:38:06.596Z,101683.14
2017-10-16T11:40:42.417Z,101673.89
2017-10-16T11:43:18.767Z,101688.94
2017-10-16T11:45:55.515Z,101678.86
2017-10-16T11:48:30.881Z,101689.11
2017-10-16T11:51:06.951Z,101683.91
2017-10-16T11:53:41.580Z,101686.70
2017-10-16T11:56:19.966Z,101689.19
2017-10-16T11:59:14.117Z,101682.59
2017-10-16T12:01:58.653Z,101682.23
2017-10-16T12:04:38.663Z,101689.95
2017-10-16T12:07:18.839Z,101686.80
2017-10-16T12:09:53.854Z,101687.52
2017-10-16T12:12:29.308Z,101685.47
2017-10-16T12:15:04.061Z,101686.16
2017-10-16T12:17:41.974Z,101691.28
2017-10-16T12:20:17.074Z,101690.45
2017-10-16T12:22:51.814Z,101689.06
2017-10-16T12:25:26.712Z,101681.73
2017-10-16T12:28:01.435Z,101683.12
2017-10-16T12:30:36.112Z,101689.31
2017-10-16T12:33:14.714Z,101682.16
2017-10-16T12:35:50.060Z,101688.67
2017-10-16T12:38:39.866Z,101682.72
2017-10-16T12:41:14.372Z,101679.95
2017-10-16T12:43:49.236Z,101681.92
2017-10-16T12:46:24.162Z,101682.55
2017-10-16T12:48:59.776Z,101686.49
2017-10-16T12:51:34.699Z,101680.97
2017-10-16T12:54:11.982Z,101679.70
2017-10-16T12:56:47.104Z,101679.82
2017-10-16T12:59:22.317Z,101677.99
2017-10-16T13:01:57.678Z,101686.55
2017-10-16T13:04:33.636Z,101688.13
2017-10-16T13:07:11.095Z,101684.72
2017-10-16T13:09:39.509Z,101677.87
2017-10-16T13:12:14.670Z,101685.16
2017-10-16T13:14:49.475Z,101679.15
2017-10-16T13:17:26.896Z,101680.44
2017-10-16T13:20:03.193Z,101672.62
2017-10-16T13:22:38.194Z,101674.76
2017-10-16T13:25:12.978Z,101673.41
2017-10-16T13:27:48.069Z,101671.39
2017-10-16T13:30:23.598Z,101668.40
2017-10-16T13:32:58.970Z,101668.05
2017-10-16T13:35:35.905Z,101662.78
2017-10-16T13:38:11.214Z,101662.38
2017-10-16T13:40:47.537Z,101661.32
2017-10-16T13:43:22.904Z,101664.42
2017-10-16T13:45:59.126Z,101662.63
2017-10-16T13:48:36.528Z,101670.63
2017-10-16T13:51:11.742Z,101672.44
2017-10-16T13:53:46.929Z,101674.11
2017-10-16T13:56:23.372Z,101674.34
2017-10-16T13:58:58.576Z,101681.50
2017-10-16T14:01:35.577Z,101688.27
2017-10-16T14:04:10.476Z,101681.06
2017-10-16T14:06:47.064Z,101680.28
2017-10-16T14:09:22.030Z,101676.30
2017-10-16T14:11:57.195Z,101679.33
2017-10-16T14:14:31.936Z,101677.87
2017-10-16T14:17:08.270Z,101679.63
2017-10-16T14:19:43.239Z,101681.42
2017-10-16T14:22:18.216Z,101681.48
2017-10-16T14:24:52.794Z,101686.14
2017-10-16T14:27:27.493Z,101685.71
2017-10-16T14:30:02.853Z,101690.52
2017-10-16T14:32:37.516Z,101685.43
2017-10-16T14:35:12.560Z,101679.88
2017-10-16T14:37:49.055Z,101683.53
2017-10-16T14:40:24.146Z,101686.70
2017-10-16T14:43:04.361Z,101686.91
2017-10-16T14:45:40.175Z,101684.92
2017-10-16T14:48:17.488Z,101682.84
2017-10-16T14:50:54.098Z,101679.64
2017-10-16T14:53:29.585Z,101685.78
2017-10-16T14:55:56.450Z,101684.59
2017-10-16T14:58:33.018Z,101690.67
2017-10-16T15:01:10.797Z,101694.59
2017-10-16T15:03:47.298Z,101692.16
2017-10-16T15:06:22.259Z,101693.16
2017-10-16T15:08:57.188Z,101689.88
2017-10-16T15:11:32.426Z,101698.30
2017-10-16T15:14:08.066Z,101696.65
2017-10-16T15:16:48.192Z,101697.72
2017-10-16T15:19:23.986Z,101703.52
2017-10-16T15:21:58.531Z,101702.77
2017-10-16T15:24:34.351Z,101701.59
2017-10-16T15:27:08.976Z,101706.88
2017-10-16T15:29:46.435Z,101707.86
2017-10-16T15:32:21.604Z,101708.84
2017-10-16T15:35:02.239Z,101713.23
2017-10-16T15:37:39.170Z,101710.23
2017-10-16T15:40:17.750Z,101720.09
2017-10-16T15:42:55.122Z,101725.72
2017-10-16T15:45:31.420Z,101727.52
2017-10-16T15:48:06.083Z,101727.95
2017-10-16T15:50:41.989Z,101732.67
2017-10-16T15:53:17.378Z,101733.59
2017-10-16T15:55:55.019Z,101738.80
2017-10-16T15:58:31.440Z,101737.19
2017-10-16T16:01:07.440Z,101732.48
2017-10-16T16:06:38.622Z,101744.06
2017-10-16T16:09:15.875Z,101744.95
2017-10-16T16:11:53.592Z,101743.30
2017-10-16T16:14:29.124Z,101746.77
2017-10-16T16:17:03.857Z,101746.33
2017-10-16T16:19:40.389Z,101749.35
2017-10-16T16:22:16.107Z,101750.63
2017-10-16T16:24:50.698Z,101759.26
2017-10-16T16:27:26.297Z,101757.20
2017-10-16T16:30:01.032Z,101759.80
2017-10-16T16:32:38.504Z,101763.66
2017-10-16T16:35:14.012Z,101765.37
2017-10-16T16:37:50.396Z,101767.08
2017-10-16T16:40:25.051Z,101767.56
2017-10-16T16:43:00.464Z,101771.02
2017-10-16T16:45:35.851Z,101765.07
2017-10-16T16:48:10.498Z,101768.10
2017-10-16T16:50:45.863Z,101773.23
2017-10-16T16:53:21.456Z,101777.50
2017-10-16T16:55:55.957Z,101770.70
2017-10-16T16:58:32.552Z,101775.89
2017-10-16T17:01:09.235Z,101776.33
2017-10-16T17:03:47.545Z,101778.48
2017-10-16T17:06:23.483Z,101772.06
2017-10-16T17:09:00.826Z,101773.77
2017-10-16T17:11:36.379Z,101770.80
2017-10-16T17:14:11.000Z,101778.12
2017-10-16T17:16:46.905Z,101780.28
2017-10-16T17:19:15.513Z,101779.03
2017-10-16T17:21:50.428Z,101782.47
2017-10-16T17:24:25.859Z,101778.63
2017-10-16T17:27:01.824Z,101776.47
2017-10-16T17:29:39.994Z,101781.61
2017-10-16T17:32:19.961Z,101782.93
2017-10-16T17:34:57.645Z,101785.91
2017-10-16T17:37:34.284Z,101785.50
2017-10-16T17:40:09.184Z,101777.84
2017-10-16T17:42:44.134Z,101780.42
2017-10-16T17:45:19.463Z,101775.30
2017-10-16T17:47:54.237Z,101774.86
2017-10-16T17:50:29.703Z,101771.84
2017-10-16T17:53:04.373Z,101775.28
2017-10-16T17:55:43.262Z,101770.56
2017-10-16T17:58:18.683Z,101777.00
2017-10-16T18:00:55.206Z,101771.89
2017-10-16T18:03:22.070Z,101777.44
2017-10-16T18:05:59.118Z,101772.77
2017-10-16T18:08:33.965Z,101776.20
2017-10-16T18:11:10.512Z,101779.17
2017-10-16T18:13:50.231Z,101775.34
2017-10-16T18:16:27.342Z,101777.91
2017-10-16T18:19:04.661Z,101772.37
2017-10-16T18:21:39.355Z,101777.08
2017-10-16T18:24:14.090Z,101771.11
2017-10-16T18:26:49.627Z,101774.94
2017-10-16T18:29:27.092Z,101780.48
2017-10-16T18:32:02.434Z,101776.66
2017-10-16T18:34:37.239Z,101780.08
2017-10-16T18:37:13.941Z,101785.62
2017-10-16T18:39:49.369Z,101783.94
2017-10-16T18:42:23.961Z,101788.63
2017-10-16T18:44:58.741Z,101785.23
2017-10-16T18:47:34.875Z,101779.69
2017-10-16T18:50:10.085Z,101780.55
2017-10-16T18:52:45.651Z,101778.83
2017-10-16T18:55:20.199Z,101773.28
2017-10-16T18:57:56.186Z,101779.69
2017-10-16T19:00:31.013Z,101778.39
2017-10-16T19:03:08.513Z,101776.67
2017-10-16T19:05:43.304Z,101778.80
2017-10-16T19:08:18.900Z,101771.14
2017-10-16T19:10:53.610Z,101776.67
2017-10-16T19:13:29.276Z,101778.36
2017-10-16T19:16:04.695Z,101783.05
2017-10-16T19:18:41.522Z,101782.63
2017-10-16T19:21:16.369Z,101782.65
2017-10-16T19:23:57.667Z,101783.52
2017-10-16T19:26:33.586Z,101782.23
2017-10-16T19:29:08.769Z,101776.70
2017-10-16T19:31:43.545Z,101777.11
2017-10-16T19:34:19.502Z,101770.27
2017-10-16T19:36:54.524Z,101775.39
2017-10-16T19:39:30.658Z,101779.66
2017-10-16T19:42:05.714Z,101774.51
2017-10-16T19:44:41.246Z,101778.80
2017-10-16T19:47:18.516Z,101780.05
2017-10-16T19:49:56.042Z,101779.20
2017-10-16T19:52:32.809Z,101781.76
2017-10-16T19:57:52.545Z,101782.63
2017-10-16T20:00:27.344Z,101779.20
2017-10-16T20:02:54.173Z,101778.38
2017-10-16T20:05:29.678Z,101775.80
2017-10-16T20:08:04.971Z,101772.37
2017-10-16T20:10:45.701Z,101777.52
2017-10-16T20:13:22.403Z,101778.78
2017-10-16T20:15:58.479Z,101775.81
2017-10-16T20:18:33.088Z,101773.25
2017-10-16T20:21:13.349Z,101767.70
2017-10-16T20:23:48.539Z,101771.95
2017-10-16T20:26:26.095Z,101771.52
2017-10-16T20:29:01.159Z,101774.52
2017-10-16T20:31:39.748Z,101770.25
2017-10-16T20:34:14.854Z,101771.97
2017-10-16T20:36:49.661Z,101766.41
2017-10-16T20:39:24.865Z,101765.55
2017-10-16T20:42:14.241Z,101765.98
2017-10-16T20:44:54.003Z,101764.25
2017-10-16T20:47:30.622Z,101764.67
2017-10-16T20:50:05.635Z,101760.82
2017-10-16T20:52:40.308Z,101760.41
2017-10-16T20:55:14.882Z,101756.55
2017-10-16T20:57:52.210Z,101761.69
2017-10-16T21:00:27.864Z,101762.55
2017-10-16T21:03:05.145Z,101755.30
2017-10-16T21:05:45.330Z,101754.02
2017-10-16T21:08:25.872Z,101753.16
2017-10-16T21:11:00.600Z,101754.86
2017-10-16T21:13:36.599Z,101753.58
2017-10-16T21:16:11.797Z,101751.47
2017-10-16T21:18:48.989Z,101758.73
2017-10-16T21:21:24.178Z,101754.88
2017-10-16T21:24:00.474Z,101755.31
2017-10-16T21:26:35.174Z,101751.06
2017-10-16T21:29:10.667Z,101752.77
2017-10-16T21:31:46.027Z,101742.95
2017-10-16T21:34:21.723Z,101745.55
2017-10-16T21:36:57.176Z,101739.98
2017-10-16T21:39:34.366Z,101737.84
2017-10-16T21:42:09.627Z,101738.26
2017-10-16T21:44:44.551Z,101738.69
2017-10-16T21:47:23.993Z,101738.27
2017-10-16T21:49:59.101Z,101733.13
2017-10-16T21:52:33.845Z,101728.44
2017-10-16T21:55:10.760Z,101723.30
2017-10-16T21:57:47.600Z,101723.72
2017-10-16T22:00:24.407Z,101727.54
2017-10-16T22:05:54.446Z,101724.98
2017-10-16T22:08:29.934Z,101722.83
2017-10-16T22:11:05.715Z,101721.54
2017-10-16T22:13:40.896Z,101724.08
2017-10-16T22:16:17.206Z,101724.11
2017-10-16T22:18:51.871Z,101720.27
2017-10-16T22:21:30.251Z,101722.84
2017-10-16T22:24:06.589Z,101724.96
2017-10-16T22:26:41.376Z,101727.09
2017-10-16T22:29:16.819Z,101726.24
2017-10-16T22:31:56.339Z,101724.95
2017-10-16T22:34:31.153Z,101721.53
2017-10-16T22:39:46.548Z,101721.94
2017-10-16T22:42:22.013Z,101711.23
2017-10-16T22:44:56.861Z,101712.09
2017-10-16T22:47:34.129Z,101707.84
2017-10-16T22:50:09.038Z,101709.14
2017-10-16T22:52:43.692Z,101706.12
2017-10-16T22:55:18.601Z,101712.55
2017-10-16T22:57:56.617Z,101704.42
2017-10-16T23:00:36.327Z,101698.45
2017-10-16T23:03:11.486Z,101700.18
2017-10-16T23:05:46.830Z,101697.22
2017-10-16T23:08:23.087Z,101686.12
2017-10-16T23:10:57.810Z,101685.26
2017-10-16T23:13:33.417Z,101689.55
2017-10-16T23:16:13.452Z,101677.61
2017-10-16T23:18:48.819Z,101681.86
2017-10-16T23:21:24.241Z,101673.36
2017-10-16T23:23:58.920Z,101673.36
2017-10-16T23:26:33.404Z,101670.80
2017-10-16T23:29:08.558Z,101666.96
2017-10-16T23:31:43.953Z,101667.36
2017-10-16T23:34:18.512Z,101666.95
2017-10-16T23:36:53.204Z,101669.53
2017-10-16T23:39:28.734Z,101663.99
2017-10-16T23:42:03.473Z,101654.20
2017-10-16T23:44:38.990Z,101649.06
2017-10-16T23:47:13.660Z,101648.65
2017-10-16T23:49:48.319Z,101644.83
2017-10-16T23:52:23.018Z,101647.39
2017-10-16T23:54:58.500Z,101637.14
2017-10-16T23:57:36.022Z,101631.59
